Time;durP1;ratioP1;P1;durP2;ratioP2;P2;SDS_P1;SDS_P2;PMS_P1;PMS_P2;Temp;Humidity;BMP_temperature;BMP_pressure;BME280_temperature;BME280_humidity;BME280_pressure;Samples;Min_cycle;Max_cycle;Signal;HPM_P1;HPM_P2
2021/12/30 00:00:37;;;;;;;;;;;1.40;99.90;;;;;;4987986;28;19925;-68
2021/12/30 00:03:04;;;;;;;;;;;1.50;99.90;;;;;;4990999;28;19952;-68
2021/12/30 00:05:32;;;;;;;;;;;1.50;99.90;;;;;;4989968;28;19930;-69
2021/12/30 00:07:59;;;;;;;;;;;1.50;99.90;;;;;;4988809;28;19925;-68
2021/12/30 00:10:26;;;;;;;;;;;1.50;99.90;;;;;;4989465;28;20024;-71
2021/12/30 00:12:53;;;;;;;;;;;1.50;99.90;;;;;;4989796;28;20062;-68
2021/12/30 00:15:21;;;;;;;;;;;1.50;99.90;;;;;;4988773;28;20413;-69
2021/12/30 00:17:48;;;;;;;;;;;1.50;99.90;;;;;;4990668;28;19951;-65
2021/12/30 00:20:15;;;;;;;;;;;1.50;99.90;;;;;;4991145;28;19930;-64
2021/12/30 00:22:42;;;;;;;;;;;1.50;99.90;;;;;;4987857;28;19936;-65
2021/12/30 00:25:10;;;;;;;;;;;1.50;99.90;;;;;;4991878;28;19992;-71
2021/12/30 00:27:37;;;;;;;;;;;1.50;99.90;;;;;;4990917;28;19936;-65
2021/12/30 00:30:06;;;;;;;;;;;1.50;99.90;;;;;;4987881;28;19934;-65
2021/12/30 00:32:33;;;;;;;;;;;1.50;99.90;;;;;;4989699;28;19931;-68
2021/12/30 00:35:00;;;;;;;;;;;1.50;99.90;;;;;;4989873;28;19964;-66
2021/12/30 00:37:27;;;;;;;;;;;1.50;99.90;;;;;;4990128;28;19929;-66
2021/12/30 00:39:54;;;;;;;;;;;1.50;99.90;;;;;;4989845;28;19957;-67
2021/12/30 00:42:21;;;;;;;;;;;1.50;99.90;;;;;;4988005;28;19929;-66
2021/12/30 00:44:47;;;;;;;;;;;1.50;99.90;;;;;;4988902;28;19925;-68
2021/12/30 00:47:14;;;;;;;;;;;1.40;99.90;;;;;;4989821;28;19930;-66
2021/12/30 00:49:41;;;;;;;;;;;1.40;99.90;;;;;;4971760;28;19929;-68
2021/12/30 00:52:08;;;;;;;;;;;1.50;99.90;;;;;;4990621;28;19933;-67
2021/12/30 00:54:35;;;;;;;;;;;1.50;99.90;;;;;;4989259;28;20544;-68
2021/12/30 00:57:02;;;;;;;;;;;1.40;99.90;;;;;;4991183;28;20418;-65
2021/12/30 00:59:28;;;;;;;;;;;1.40;99.90;;;;;;4990099;28;19961;-68
2021/12/30 01:01:55;;;;;;;;;;;1.50;99.90;;;;;;4989956;28;19925;-67
2021/12/30 01:04:22;;;;;;;;;;;1.50;99.90;;;;;;4988512;28;19933;-67
2021/12/30 01:06:51;;;;;;;;;;;1.40;99.90;;;;;;4989211;28;20473;-66
2021/12/30 01:09:19;;;;;;;;;;;1.40;99.90;;;;;;4991214;28;19972;-65
2021/12/30 01:11:46;;;;;;;;;;;1.50;99.90;;;;;;4992150;28;19929;-67
2021/12/30 01:14:20;;;;;;;;;;;1.40;99.90;;;;;;4992808;28;20055;-70
2021/12/30 01:16:51;;;;;;;;;;;1.40;99.90;;;;;;4990834;28;20469;-69
2021/12/30 01:21:49;;;;;;;;;;;1.50;99.90;;;;;;4992109;28;19968;-67
2021/12/30 01:24:16;;;;;;;;;;;1.50;99.90;;;;;;4993246;28;19929;-64
2021/12/30 01:26:43;;;;;;;;;;;1.50;99.90;;;;;;4988348;28;21141;-68
2021/12/30 01:29:09;;;;;;;;;;;1.50;99.90;;;;;;4995052;28;20032;-68
2021/12/30 01:31:36;;;;;;;;;;;1.50;99.90;;;;;;4991703;28;19929;-67
2021/12/30 01:34:19;;;;;;;;;;;1.50;99.90;;;;;;4991704;28;19929;-67
2021/12/30 01:36:46;;;;;;;;;;;1.50;99.90;;;;;;4992171;28;19961;-67
2021/12/30 01:39:13;;;;;;;;;;;1.60;99.90;;;;;;5008009;28;19995;-66
2021/12/30 01:41:41;;;;;;;;;;;1.50;99.90;;;;;;4992722;28;19941;-65
2021/12/30 01:44:08;;;;;;;;;;;1.50;99.90;;;;;;4993948;28;19960;-64
2021/12/30 01:46:39;;;;;;;;;;;1.50;99.90;;;;;;4991252;28;19939;-66
2021/12/30 01:49:07;;;;;;;;;;;1.50;99.90;;;;;;4991268;28;20154;-66
2021/12/30 01:51:34;;;;;;;;;;;1.50;99.90;;;;;;4990170;28;19929;-68
2021/12/30 01:54:00;;;;;;;;;;;1.60;99.90;;;;;;4993746;28;19979;-66
2021/12/30 01:56:28;;;;;;;;;;;1.60;99.90;;;;;;4991899;28;19929;-69
2021/12/30 01:58:55;;;;;;;;;;;1.50;99.90;;;;;;4994292;28;19956;-65
2021/12/30 02:01:22;;;;;;;;;;;1.50;99.90;;;;;;4992597;28;20037;-68
2021/12/30 02:03:50;;;;;;;;;;;1.50;99.90;;;;;;4993715;28;19930;-68
2021/12/30 02:06:17;;;;;;;;;;;1.50;99.90;;;;;;4991280;28;19987;-67
2021/12/30 02:08:43;;;;;;;;;;;1.50;99.90;;;;;;4994004;28;20067;-66
2021/12/30 02:11:10;;;;;;;;;;;1.50;99.90;;;;;;4991384;28;20056;-66
2021/12/30 02:13:37;;;;;;;;;;;1.60;99.90;;;;;;4992557;28;19930;-67
2021/12/30 02:16:04;;;;;;;;;;;1.60;99.90;;;;;;4992396;28;19961;-67
2021/12/30 02:18:31;;;;;;;;;;;1.50;99.90;;;;;;4990912;28;19929;-69
2021/12/30 02:21:00;;;;;;;;;;;1.50;99.90;;;;;;4994048;28;19949;-67
2021/12/30 02:23:29;;;;;;;;;;;1.50;99.90;;;;;;4992282;28;19964;-67
2021/12/30 02:25:57;;;;;;;;;;;1.50;99.90;;;;;;4993436;28;19954;-68
2021/12/30 02:28:29;;;;;;;;;;;1.60;99.90;;;;;;4990657;28;20036;-67
2021/12/30 02:30:57;;;;;;;;;;;1.50;99.90;;;;;;4993440;28;19931;-67
2021/12/30 02:33:24;;;;;;;;;;;1.50;99.90;;;;;;4991584;28;19936;-67
2021/12/30 02:35:51;;;;;;;;;;;1.60;99.90;;;;;;4994101;28;21623;-65
2021/12/30 02:38:19;;;;;;;;;;;1.60;99.90;;;;;;4992760;28;19933;-65
2021/12/30 02:40:49;;;;;;;;;;;1.60;99.90;;;;;;4991555;28;19935;-69
2021/12/30 02:43:17;;;;;;;;;;;1.60;99.90;;;;;;4993336;28;20019;-66
2021/12/30 02:45:44;;;;;;;;;;;1.60;99.90;;;;;;4991398;28;19929;-66
2021/12/30 02:48:15;;;;;;;;;;;1.60;99.90;;;;;;4994151;28;19949;-66
2021/12/30 02:50:43;;;;;;;;;;;1.60;99.90;;;;;;4989833;28;19956;-66
2021/12/30 02:53:10;;;;;;;;;;;1.60;99.90;;;;;;4994125;28;19970;-69
2021/12/30 02:55:38;;;;;;;;;;;1.60;99.90;;;;;;4990071;28;19929;-65
2021/12/30 02:58:05;;;;;;;;;;;1.60;99.90;;;;;;4992745;28;20068;-66
2021/12/30 03:00:32;;;;;;;;;;;1.60;99.90;;;;;;4990061;28;20287;-67
2021/12/30 03:02:59;;;;;;;;;;;1.60;99.90;;;;;;4992874;28;19930;-66
2021/12/30 03:05:26;;;;;;;;;;;1.60;99.90;;;;;;4992363;28;19936;-69
2021/12/30 03:07:53;;;;;;;;;;;1.60;99.90;;;;;;4991488;28;19929;-64
2021/12/30 03:10:22;;;;;;;;;;;1.60;99.90;;;;;;4993542;28;20398;-66
2021/12/30 03:12:56;;;;;;;;;;;1.60;99.90;;;;;;4989773;28;19929;-64
2021/12/30 03:15:23;;;;;;;;;;;1.70;99.90;;;;;;4990780;28;19929;-69
2021/12/30 03:17:50;;;;;;;;;;;1.70;99.90;;;;;;4991924;28;19952;-66
2021/12/30 03:20:17;;;;;;;;;;;1.70;99.90;;;;;;4989752;28;19947;-69
2021/12/30 03:22:44;;;;;;;;;;;1.70;99.90;;;;;;4988653;28;20629;-64
2021/12/30 03:25:12;;;;;;;;;;;1.70;99.90;;;;;;4992273;28;20016;-66
2021/12/30 03:27:39;;;;;;;;;;;1.70;99.90;;;;;;4992455;28;20000;-67
2021/12/30 03:30:08;;;;;;;;;;;1.70;99.90;;;;;;4991322;28;20352;-66
2021/12/30 03:32:35;;;;;;;;;;;1.70;99.90;;;;;;4990963;28;20122;-64
2021/12/30 03:35:02;;;;;;;;;;;1.70;99.90;;;;;;4989726;28;20017;-65
2021/12/30 03:37:29;;;;;;;;;;;1.70;99.90;;;;;;4994021;28;19932;-66
2021/12/30 03:39:56;;;;;;;;;;;1.70;99.90;;;;;;4990745;28;20023;-65
2021/12/30 03:42:23;;;;;;;;;;;1.70;99.90;;;;;;4991365;28;20003;-68
2021/12/30 03:44:52;;;;;;;;;;;1.70;99.90;;;;;;4991553;28;20016;-66
2021/12/30 03:47:19;;;;;;;;;;;1.70;99.90;;;;;;4994435;28;20820;-66
2021/12/30 03:49:46;;;;;;;;;;;1.70;99.90;;;;;;4991111;28;20000;-65
2021/12/30 03:52:19;;;;;;;;;;;1.70;99.90;;;;;;4993552;28;19969;-67
2021/12/30 03:54:46;;;;;;;;;;;1.70;99.90;;;;;;4990614;28;19980;-66
2021/12/30 03:57:13;;;;;;;;;;;1.70;99.90;;;;;;4992263;28;20015;-65
2021/12/30 03:59:40;;;;;;;;;;;1.70;99.90;;;;;;4993276;28;20055;-69
2021/12/30 04:02:07;;;;;;;;;;;1.80;99.90;;;;;;4989494;28;20016;-66
2021/12/30 04:04:34;;;;;;;;;;;1.80;99.90;;;;;;4992227;28;20484;-67
2021/12/30 04:07:01;;;;;;;;;;;1.80;99.90;;;;;;4990659;28;19963;-67
2021/12/30 04:09:28;;;;;;;;;;;1.70;99.90;;;;;;4993145;28;19995;-69
2021/12/30 04:11:54;;;;;;;;;;;1.80;99.90;;;;;;4991544;28;19952;-67
2021/12/30 04:14:22;;;;;;;;;;;1.80;99.90;;;;;;4988230;28;20011;-66
2021/12/30 04:16:49;;;;;;;;;;;1.80;99.90;;;;;;4989846;28;19929;-67
2021/12/30 04:19:16;;;;;;;;;;;1.80;99.90;;;;;;4990168;28;19948;-66
2021/12/30 04:21:44;;;;;;;;;;;1.80;99.90;;;;;;4991155;28;19936;-65
2021/12/30 04:24:11;;;;;;;;;;;1.80;99.90;;;;;;4990092;28;19930;-66
2021/12/30 04:26:37;;;;;;;;;;;1.80;99.90;;;;;;4989638;28;19929;-70
2021/12/30 04:29:07;;;;;;;;;;;1.80;99.90;;;;;;4991594;28;20016;-66
2021/12/30 04:31:34;;;;;;;;;;;1.80;99.90;;;;;;4989990;28;20015;-68
2021/12/30 04:34:01;;;;;;;;;;;1.80;99.90;;;;;;4994985;28;19944;-66
2021/12/30 04:36:27;;;;;;;;;;;1.80;99.90;;;;;;4990802;28;19925;-68
2021/12/30 04:38:54;;;;;;;;;;;1.80;99.90;;;;;;4994089;28;19983;-67
2021/12/30 04:41:21;;;;;;;;;;;1.80;99.90;;;;;;4993452;28;19929;-68
2021/12/30 04:43:48;;;;;;;;;;;1.80;99.90;;;;;;4993302;28;20024;-65
2021/12/30 04:46:15;;;;;;;;;;;1.80;99.90;;;;;;4990971;28;20526;-66
2021/12/30 04:48:42;;;;;;;;;;;1.80;99.90;;;;;;4995159;28;19929;-67
2021/12/30 04:51:08;;;;;;;;;;;1.80;99.90;;;;;;4993225;28;19999;-65
2021/12/30 04:53:35;;;;;;;;;;;1.80;99.90;;;;;;4995078;28;20075;-66
2021/12/30 04:56:02;;;;;;;;;;;1.90;99.90;;;;;;4994204;28;19944;-67
2021/12/30 04:58:29;;;;;;;;;;;1.90;99.90;;;;;;4994038;28;19936;-64
2021/12/30 05:00:56;;;;;;;;;;;1.90;99.90;;;;;;4994275;28;20015;-68
2021/12/30 05:03:25;;;;;;;;;;;1.90;99.90;;;;;;4992372;28;20025;-67
2021/12/30 05:05:52;;;;;;;;;;;1.90;99.90;;;;;;4993456;28;19929;-68
2021/12/30 05:08:21;;;;;;;;;;;1.90;99.90;;;;;;4992726;28;19929;-66
2021/12/30 05:10:48;;;;;;;;;;;1.90;99.90;;;;;;4989674;28;20391;-66
2021/12/30 05:13:16;;;;;;;;;;;1.90;99.90;;;;;;4992478;28;20068;-67
2021/12/30 05:15:43;;;;;;;;;;;1.90;99.90;;;;;;4992923;28;19992;-69
2021/12/30 05:18:10;;;;;;;;;;;2.00;99.90;;;;;;4992839;28;19951;-67
2021/12/30 05:20:38;;;;;;;;;;;2.00;99.90;;;;;;4991912;28;19933;-70
2021/12/30 05:23:05;;;;;;;;;;;2.00;99.90;;;;;;4992449;28;20073;-70
2021/12/30 05:25:32;;;;;;;;;;;2.00;99.90;;;;;;4992497;28;20528;-66
2021/12/30 05:27:59;;;;;;;;;;;2.00;99.90;;;;;;4991726;28;19930;-67
2021/12/30 05:30:26;;;;;;;;;;;2.00;99.90;;;;;;4991808;28;19964;-64
2021/12/30 05:32:54;;;;;;;;;;;2.00;99.90;;;;;;4993071;28;20019;-68
2021/12/30 05:35:22;;;;;;;;;;;2.10;99.90;;;;;;4991520;28;19929;-64
2021/12/30 05:37:49;;;;;;;;;;;2.10;99.90;;;;;;4992824;28;19936;-64
2021/12/30 05:40:17;;;;;;;;;;;2.10;99.90;;;;;;4993889;28;20019;-66
2021/12/30 05:42:44;;;;;;;;;;;2.10;99.90;;;;;;4990406;28;19933;-69
2021/12/30 05:45:14;;;;;;;;;;;2.10;99.90;;;;;;4993598;28;20720;-67
2021/12/30 05:47:41;;;;;;;;;;;2.10;99.90;;;;;;4993385;28;19956;-67
2021/12/30 05:50:09;;;;;;;;;;;2.10;99.90;;;;;;4992731;28;19941;-66
2021/12/30 05:52:36;;;;;;;;;;;2.10;99.90;;;;;;4993166;28;19937;-66
2021/12/30 05:55:04;;;;;;;;;;;2.10;99.90;;;;;;4992072;28;20023;-66
2021/12/30 05:57:31;;;;;;;;;;;2.10;99.90;;;;;;4992478;28;21374;-67
2021/12/30 05:59:58;;;;;;;;;;;2.10;99.90;;;;;;4991946;28;20036;-67
2021/12/30 06:02:25;;;;;;;;;;;2.10;99.90;;;;;;4991533;28;20663;-67
2021/12/30 06:04:52;;;;;;;;;;;2.10;99.90;;;;;;4991975;28;19930;-66
2021/12/30 06:07:19;;;;;;;;;;;2.10;99.90;;;;;;4992608;28;20879;-66
2021/12/30 06:09:46;;;;;;;;;;;2.20;99.90;;;;;;4992243;28;19955;-65
2021/12/30 06:12:13;;;;;;;;;;;2.20;99.90;;;;;;4992796;28;20054;-64
2021/12/30 06:14:39;;;;;;;;;;;2.20;99.90;;;;;;4988401;28;20052;-68
2021/12/30 06:17:06;;;;;;;;;;;2.20;99.90;;;;;;4992570;28;19929;-66
2021/12/30 06:19:33;;;;;;;;;;;2.20;99.90;;;;;;4991008;28;19936;-67
2021/12/30 06:22:00;;;;;;;;;;;2.20;99.90;;;;;;4992921;28;19941;-64
2021/12/30 06:24:27;;;;;;;;;;;2.20;99.90;;;;;;4987771;28;20032;-67
2021/12/30 06:26:54;;;;;;;;;;;2.20;99.90;;;;;;4992411;28;19987;-65
2021/12/30 06:29:21;;;;;;;;;;;2.20;99.90;;;;;;4989012;28;19929;-66
2021/12/30 06:31:48;;;;;;;;;;;2.30;99.90;;;;;;4990678;28;21263;-64
2021/12/30 06:34:15;;;;;;;;;;;2.30;99.90;;;;;;4990437;28;19940;-69
2021/12/30 06:36:42;;;;;;;;;;;2.30;99.90;;;;;;4988478;28;20014;-68
2021/12/30 06:39:09;;;;;;;;;;;2.30;99.90;;;;;;4989558;28;20031;-67
2021/12/30 06:41:36;;;;;;;;;;;2.30;99.90;;;;;;4991559;28;19934;-66
2021/12/30 06:44:03;;;;;;;;;;;2.30;99.90;;;;;;4992653;28;19941;-66
2021/12/30 06:46:30;;;;;;;;;;;2.30;99.90;;;;;;4988182;28;20052;-69
2021/12/30 06:48:57;;;;;;;;;;;2.30;99.90;;;;;;4990862;28;19972;-67
2021/12/30 06:51:26;;;;;;;;;;;2.30;99.90;;;;;;4991451;28;19976;-66
2021/12/30 06:53:55;;;;;;;;;;;2.40;99.90;;;;;;4990677;28;19936;-68
2021/12/30 06:56:22;;;;;;;;;;;2.40;99.90;;;;;;4988827;28;20335;-66
2021/12/30 06:58:49;;;;;;;;;;;2.40;99.90;;;;;;4989624;28;20024;-68
2021/12/30 07:01:16;;;;;;;;;;;2.40;99.90;;;;;;4989229;28;20074;-68
2021/12/30 07:03:43;;;;;;;;;;;2.50;99.90;;;;;;4991205;28;20687;-65
2021/12/30 07:06:10;;;;;;;;;;;2.40;99.90;;;;;;4990868;28;20398;-69
2021/12/30 07:08:37;;;;;;;;;;;2.50;99.90;;;;;;4989949;28;20018;-66
2021/12/30 07:11:04;;;;;;;;;;;2.50;99.90;;;;;;4989912;28;19935;-65
2021/12/30 07:13:31;;;;;;;;;;;2.50;99.90;;;;;;4989290;28;20131;-65
2021/12/30 07:15:58;;;;;;;;;;;2.60;99.90;;;;;;4990275;28;19929;-68
2021/12/30 07:18:25;;;;;;;;;;;2.60;99.90;;;;;;4988622;28;20005;-67
2021/12/30 07:20:52;;;;;;;;;;;2.50;99.90;;;;;;4989261;28;19929;-67
2021/12/30 07:23:18;;;;;;;;;;;2.60;99.90;;;;;;4989327;28;19937;-67
2021/12/30 07:25:45;;;;;;;;;;;2.60;99.90;;;;;;4988172;28;19930;-66
2021/12/30 07:28:12;;;;;;;;;;;2.60;99.90;;;;;;4987551;28;19984;-69
2021/12/30 07:30:39;;;;;;;;;;;2.60;99.90;;;;;;4986146;28;19970;-67
2021/12/30 07:33:07;;;;;;;;;;;2.60;99.90;;;;;;4986551;28;20047;-66
2021/12/30 07:35:35;;;;;;;;;;;2.60;99.90;;;;;;4988414;28;19972;-70
2021/12/30 07:38:02;;;;;;;;;;;2.60;99.90;;;;;;4987689;28;20366;-64
2021/12/30 07:40:29;;;;;;;;;;;2.60;99.90;;;;;;4986463;28;19929;-65
2021/12/30 07:42:56;;;;;;;;;;;2.70;99.90;;;;;;4989125;28;19929;-67
2021/12/30 07:45:23;;;;;;;;;;;2.60;99.90;;;;;;4989252;28;19930;-67
2021/12/30 07:47:50;;;;;;;;;;;2.70;99.90;;;;;;4990369;28;19976;-66
2021/12/30 07:50:17;;;;;;;;;;;2.70;99.90;;;;;;4987019;28;19942;-68
2021/12/30 07:52:44;;;;;;;;;;;2.70;99.90;;;;;;4988344;28;20044;-67
2021/12/30 07:55:13;;;;;;;;;;;2.70;99.90;;;;;;4990507;28;20054;-67
2021/12/30 07:57:40;;;;;;;;;;;2.70;99.90;;;;;;4988253;28;19929;-70
2021/12/30 08:00:09;;;;;;;;;;;2.80;99.90;;;;;;4988460;28;20501;-64
2021/12/30 08:02:42;;;;;;;;;;;2.70;99.90;;;;;;4986312;28;21334;-65
2021/12/30 08:05:09;;;;;;;;;;;2.80;99.90;;;;;;4989447;28;19929;-67
2021/12/30 08:07:36;;;;;;;;;;;2.80;99.90;;;;;;4988705;28;19930;-67
2021/12/30 08:10:04;;;;;;;;;;;2.80;99.90;;;;;;4989851;28;20127;-69
2021/12/30 08:12:31;;;;;;;;;;;2.80;99.90;;;;;;4987820;28;20304;-69
2021/12/30 08:14:58;;;;;;;;;;;2.80;99.90;;;;;;4988914;28;20074;-71
2021/12/30 08:17:24;;;;;;;;;;;2.80;99.90;;;;;;4988440;28;20028;-65
2021/12/30 08:19:51;;;;;;;;;;;2.80;99.90;;;;;;4990523;28;20032;-66
2021/12/30 08:22:18;;;;;;;;;;;2.90;99.90;;;;;;4992077;28;19939;-68
2021/12/30 08:24:45;;;;;;;;;;;2.80;99.90;;;;;;4990919;28;20622;-66
2021/12/30 08:27:15;;;;;;;;;;;2.90;99.90;;;;;;4994192;28;19936;-67
2021/12/30 08:29:42;;;;;;;;;;;2.90;99.90;;;;;;4992503;28;19977;-66
2021/12/30 08:32:13;;;;;;;;;;;2.90;99.90;;;;;;4994689;28;19948;-66
2021/12/30 08:34:40;;;;;;;;;;;2.90;99.90;;;;;;4991078;28;19929;-67
2021/12/30 08:37:07;;;;;;;;;;;2.90;99.90;;;;;;4994734;28;19998;-67
2021/12/30 08:39:37;;;;;;;;;;;2.90;99.90;;;;;;4994208;28;19934;-66
2021/12/30 08:42:04;;;;;;;;;;;2.90;99.90;;;;;;4994150;28;19948;-66
2021/12/30 08:44:31;;;;;;;;;;;2.90;99.90;;;;;;4992519;28;19929;-66
2021/12/30 08:46:58;;;;;;;;;;;2.90;99.90;;;;;;4993077;28;19933;-66
2021/12/30 08:49:25;;;;;;;;;;;3.00;99.90;;;;;;4995447;28;20435;-67
2021/12/30 08:51:52;;;;;;;;;;;3.00;99.90;;;;;;4992990;28;20047;-67
2021/12/30 08:54:19;;;;;;;;;;;3.00;99.90;;;;;;4994850;28;19972;-67
2021/12/30 08:56:46;;;;;;;;;;;3.00;99.90;;;;;;4992656;28;20012;-66
2021/12/30 08:59:13;;;;;;;;;;;3.00;99.90;;;;;;4995443;28;20008;-67
2021/12/30 09:01:40;;;;;;;;;;;3.10;99.90;;;;;;4992782;28;20367;-66
2021/12/30 09:04:07;;;;;;;;;;;3.10;99.90;;;;;;4994100;28;19929;-67
2021/12/30 09:06:34;;;;;;;;;;;3.10;99.90;;;;;;4991012;28;19929;-65
2021/12/30 09:09:00;;;;;;;;;;;3.20;99.90;;;;;;4994251;28;20155;-66
2021/12/30 09:11:27;;;;;;;;;;;3.20;99.90;;;;;;4992990;28;20281;-67
2021/12/30 09:13:54;;;;;;;;;;;3.20;99.90;;;;;;4992442;28;19929;-65
2021/12/30 09:16:21;;;;;;;;;;;3.20;99.90;;;;;;4993581;28;19930;-66
2021/12/30 09:18:48;;;;;;;;;;;3.20;99.90;;;;;;4990955;28;19984;-69
2021/12/30 09:21:14;;;;;;;;;;;3.30;99.90;;;;;;4993362;28;19933;-68
2021/12/30 09:23:41;;;;;;;;;;;3.30;99.90;;;;;;4994234;28;20368;-68
2021/12/30 09:26:08;;;;;;;;;;;3.30;99.90;;;;;;4992898;28;19934;-64
2021/12/30 09:28:35;;;;;;;;;;;3.30;99.90;;;;;;4989869;28;20783;-65
2021/12/30 09:31:02;;;;;;;;;;;3.40;99.90;;;;;;4992289;28;20052;-68
2021/12/30 09:33:29;;;;;;;;;;;3.40;99.90;;;;;;4993361;28;20044;-67
2021/12/30 09:35:59;;;;;;;;;;;3.40;99.90;;;;;;4993012;28;19979;-65
2021/12/30 09:38:26;;;;;;;;;;;3.40;99.90;;;;;;4991413;28;19948;-69
2021/12/30 09:40:54;;;;;;;;;;;3.40;99.90;;;;;;4992507;28;20458;-66
2021/12/30 09:43:21;;;;;;;;;;;3.40;99.90;;;;;;4991369;28;20462;-66
2021/12/30 09:45:47;;;;;;;;;;;3.40;99.90;;;;;;4991666;28;19929;-65
2021/12/30 09:48:15;;;;;;;;;;;3.40;99.90;;;;;;4991623;28;19926;-67
2021/12/30 09:50:46;;;;;;;;;;;3.50;99.90;;;;;;4991030;28;19929;-67
2021/12/30 09:53:17;;;;;;;;;;;3.50;99.90;;;;;;4993516;28;19960;-67
2021/12/30 09:55:44;;;;;;;;;;;3.50;99.90;;;;;;4992534;28;19929;-67
2021/12/30 09:58:11;;;;;;;;;;;3.40;99.90;;;;;;4993039;28;19935;-67
2021/12/30 10:00:37;;;;;;;;;;;3.40;99.90;;;;;;4992675;28;19929;-67
2021/12/30 10:03:04;;;;;;;;;;;3.50;99.90;;;;;;4991630;28;20008;-67
2021/12/30 10:05:33;;;;;;;;;;;3.50;99.90;;;;;;4991189;28;19952;-68
2021/12/30 10:08:26;;;;;;;;;;;3.50;99.90;;;;;;4993414;28;20318;-67
2021/12/30 10:10:57;;;;;;;;;;;3.50;99.90;;;;;;4987891;28;20050;-67
2021/12/30 10:13:29;;;;;;;;;;;3.50;99.90;;;;;;4991384;28;19930;-67
2021/12/30 10:15:58;;;;;;;;;;;3.50;99.90;;;;;;4990297;28;20477;-66
2021/12/30 10:18:39;;;;;;;;;;;3.50;99.90;;;;;;4991588;28;20247;-65
2021/12/30 10:21:30;;;;;;;;;;;3.50;99.90;;;;;;5005139;28;20294;-66
2021/12/30 10:23:58;;;;;;;;;;;3.50;99.90;;;;;;4985377;28;19983;-70
2021/12/30 10:26:25;;;;;;;;;;;3.60;99.90;;;;;;4990710;28;19935;-68
2021/12/30 10:29:02;;;;;;;;;;;3.60;99.90;;;;;;4991794;28;20426;-65
2021/12/30 10:31:30;;;;;;;;;;;3.60;99.90;;;;;;4991370;28;20003;-64
2021/12/30 10:34:04;;;;;;;;;;;3.60;99.90;;;;;;4991159;28;20383;-66
2021/12/30 10:36:33;;;;;;;;;;;3.60;99.90;;;;;;4988926;28;20390;-70
2021/12/30 10:39:15;;;;;;;;;;;3.60;99.90;;;;;;4992773;28;19929;-70
2021/12/30 10:41:42;;;;;;;;;;;3.60;99.90;;;;;;4989722;28;19945;-69
2021/12/30 10:44:09;;;;;;;;;;;3.60;99.90;;;;;;4991549;28;20019;-65
2021/12/30 10:46:36;;;;;;;;;;;3.50;99.90;;;;;;4988557;28;20007;-66
2021/12/30 10:49:08;;;;;;;;;;;3.60;99.90;;;;;;4991847;28;19930;-65
2021/12/30 10:51:37;;;;;;;;;;;3.60;99.90;;;;;;4988004;28;19930;-65
2021/12/30 10:54:09;;;;;;;;;;;3.60;99.90;;;;;;4992351;28;20044;-67
2021/12/30 10:56:41;;;;;;;;;;;3.60;99.90;;;;;;4990029;28;20019;-65
2021/12/30 10:59:08;;;;;;;;;;;3.60;99.90;;;;;;4989936;28;20499;-67
2021/12/30 11:01:45;;;;;;;;;;;3.60;99.90;;;;;;4993263;28;19939;-68
2021/12/30 11:04:12;;;;;;;;;;;3.60;99.90;;;;;;4991310;28;20272;-68
2021/12/30 11:06:39;;;;;;;;;;;3.60;99.90;;;;;;4989389;28;20071;-64
2021/12/30 11:09:11;;;;;;;;;;;3.60;99.90;;;;;;4991439;28;19929;-69
2021/12/30 11:11:45;;;;;;;;;;;3.60;99.90;;;;;;4991323;28;19995;-68
2021/12/30 11:14:14;;;;;;;;;;;3.60;99.90;;;;;;4990931;28;20347;-67
2021/12/30 11:16:50;;;;;;;;;;;3.60;99.90;;;;;;4988407;28;19929;-65
2021/12/30 11:19:18;;;;;;;;;;;3.60;99.90;;;;;;4991481;28;19937;-69
2021/12/30 11:21:47;;;;;;;;;;;3.50;99.90;;;;;;4991238;28;20007;-67
2021/12/30 11:24:14;;;;;;;;;;;3.50;99.90;;;;;;4988197;28;19949;-65
2021/12/30 11:26:41;;;;;;;;;;;3.50;99.90;;;;;;4983350;28;19973;-64
2021/12/30 11:29:08;;;;;;;;;;;3.50;99.90;;;;;;4990283;28;20035;-66
2021/12/30 11:31:35;;;;;;;;;;;3.50;99.90;;;;;;4989782;28;20059;-66
2021/12/30 11:34:02;;;;;;;;;;;3.50;99.90;;;;;;4988674;28;20043;-64
2021/12/30 11:36:29;;;;;;;;;;;3.50;99.90;;;;;;4982945;28;20378;-68
2021/12/30 11:39:02;;;;;;;;;;;3.40;99.90;;;;;;4989638;28;19929;-69
2021/12/30 11:41:29;;;;;;;;;;;3.50;99.90;;;;;;4989297;28;19937;-69
2021/12/30 11:43:56;;;;;;;;;;;3.40;99.90;;;;;;4990722;28;20775;-66
2021/12/30 11:46:42;;;;;;;;;;;3.50;99.90;;;;;;4988856;28;19929;-66
2021/12/30 11:49:10;;;;;;;;;;;3.50;99.90;;;;;;4993639;28;19929;-67
2021/12/30 11:51:44;;;;;;;;;;;3.50;99.90;;;;;;4988871;28;19973;-65
2021/12/30 11:54:34;;;;;;;;;;;3.40;99.90;;;;;;4989750;28;19933;-68
2021/12/30 11:57:20;;;;;;;;;;;3.50;99.90;;;;;;4987297;28;20021;-66
2021/12/30 11:59:47;;;;;;;;;;;3.50;99.90;;;;;;4989254;28;19929;-67
2021/12/30 12:02:33;;;;;;;;;;;3.60;99.90;;;;;;4984036;28;19930;-66
2021/12/30 12:05:19;;;;;;;;;;;3.60;99.90;;;;;;4989319;28;19929;-66
2021/12/30 12:08:02;;;;;;;;;;;3.60;99.90;;;;;;4991396;28;20292;-66
2021/12/30 12:10:30;;;;;;;;;;;3.60;99.90;;;;;;4986521;28;19934;-68
2021/12/30 12:12:57;;;;;;;;;;;3.60;99.90;;;;;;4991090;28;19956;-67
2021/12/30 12:15:41;;;;;;;;;;;3.60;99.90;;;;;;4989612;28;19934;-65
2021/12/30 12:18:12;;;;;;;;;;;3.60;99.90;;;;;;4992388;28;19939;-65
2021/12/30 12:20:49;;;;;;;;;;;3.60;99.90;;;;;;4987873;28;20025;-66
2021/12/30 12:23:30;;;;;;;;;;;3.70;99.90;;;;;;4990274;28;19932;-65
2021/12/30 12:26:21;;;;;;;;;;;3.70;99.90;;;;;;4990042;28;20841;-68
2021/12/30 12:28:48;;;;;;;;;;;3.70;99.90;;;;;;4985203;28;19999;-66
2021/12/30 12:31:15;;;;;;;;;;;3.70;99.90;;;;;;4989003;28;19956;-67
2021/12/30 12:33:42;;;;;;;;;;;3.70;99.90;;;;;;4990512;28;19929;-68
2021/12/30 12:36:17;;;;;;;;;;;3.70;99.90;;;;;;4989696;28;19975;-67
2021/12/30 12:38:50;;;;;;;;;;;3.70;99.90;;;;;;4986406;28;19937;-68
2021/12/30 12:41:17;;;;;;;;;;;3.80;99.90;;;;;;4988106;28;19991;-67
2021/12/30 12:43:44;;;;;;;;;;;3.80;99.90;;;;;;4988952;28;20052;-68
2021/12/30 12:46:11;;;;;;;;;;;3.80;99.90;;;;;;4987158;28;20546;-68
2021/12/30 12:48:39;;;;;;;;;;;3.80;99.90;;;;;;4989691;28;20339;-68
2021/12/30 12:51:15;;;;;;;;;;;3.80;99.90;;;;;;4990781;28;20457;-64
2021/12/30 12:53:43;;;;;;;;;;;3.90;99.90;;;;;;4991561;28;20000;-68
2021/12/30 12:56:10;;;;;;;;;;;3.90;99.90;;;;;;4992571;28;20049;-64
2021/12/30 12:58:39;;;;;;;;;;;3.90;99.90;;;;;;4987526;28;20343;-68
2021/12/30 13:01:07;;;;;;;;;;;3.90;99.90;;;;;;4991629;28;19930;-65
2021/12/30 13:03:37;;;;;;;;;;;3.90;99.90;;;;;;4990406;28;20030;-64
2021/12/30 13:06:09;;;;;;;;;;;3.90;99.90;;;;;;4988535;28;19929;-68
2021/12/30 13:08:38;;;;;;;;;;;3.90;99.90;;;;;;4992972;28;19964;-67
2021/12/30 13:11:07;;;;;;;;;;;3.90;99.90;;;;;;4994619;28;19925;-69
2021/12/30 13:13:38;;;;;;;;;;;3.90;99.90;;;;;;4992106;28;19929;-66
2021/12/30 13:16:18;;;;;;;;;;;3.90;99.90;;;;;;4992996;28;19929;-66
2021/12/30 13:19:20;;;;;;;;;;;3.90;99.90;;;;;;4993051;28;19955;-68
2021/12/30 13:21:47;;;;;;;;;;;3.90;99.90;;;;;;4960907;28;19933;-65
2021/12/30 13:24:27;;;;;;;;;;;4.00;99.90;;;;;;4994428;28;20017;-66
2021/12/30 13:26:54;;;;;;;;;;;4.00;99.90;;;;;;4993717;28;19960;-64
2021/12/30 13:29:28;;;;;;;;;;;4.00;99.90;;;;;;4992282;28;19936;-65
2021/12/30 13:31:56;;;;;;;;;;;4.00;99.90;;;;;;4992671;28;19929;-66
2021/12/30 13:34:23;;;;;;;;;;;4.00;99.90;;;;;;4988535;28;19925;-66
2021/12/30 13:36:50;;;;;;;;;;;4.00;99.90;;;;;;4994802;28;20611;-65
2021/12/30 13:39:17;;;;;;;;;;;4.00;99.90;;;;;;4994691;28;19984;-65
2021/12/30 13:41:51;;;;;;;;;;;4.00;99.90;;;;;;4991625;28;20003;-66
2021/12/30 13:44:22;;;;;;;;;;;4.10;99.90;;;;;;4992661;28;19937;-66
2021/12/30 13:46:49;;;;;;;;;;;4.10;99.90;;;;;;4990251;28;19968;-67
2021/12/30 13:49:16;;;;;;;;;;;4.10;99.90;;;;;;4993104;28;20278;-67
2021/12/30 13:51:43;;;;;;;;;;;4.10;99.90;;;;;;4993541;28;20298;-66
2021/12/30 13:54:10;;;;;;;;;;;4.10;99.90;;;;;;4993726;28;20052;-65
2021/12/30 13:56:37;;;;;;;;;;;4.10;99.90;;;;;;4990038;28;19929;-65
2021/12/30 13:59:06;;;;;;;;;;;4.00;99.90;;;;;;4991953;28;19965;-65
2021/12/30 14:01:35;;;;;;;;;;;4.10;99.90;;;;;;4992136;28;21276;-66
2021/12/30 14:04:02;;;;;;;;;;;4.10;99.90;;;;;;4992271;28;19925;-65
2021/12/30 14:06:30;;;;;;;;;;;4.00;99.90;;;;;;4990969;28;20417;-64
2021/12/30 14:08:58;;;;;;;;;;;4.00;99.90;;;;;;4992199;28;19951;-66
2021/12/30 14:11:32;;;;;;;;;;;4.00;99.90;;;;;;4991363;28;20036;-69
2021/12/30 14:14:00;;;;;;;;;;;4.00;99.90;;;;;;4994172;28;19937;-64
2021/12/30 14:16:37;;;;;;;;;;;4.00;99.90;;;;;;4990482;28;20630;-68
2021/12/30 14:19:04;;;;;;;;;;;4.00;99.90;;;;;;4992100;28;20490;-69
2021/12/30 14:21:33;;;;;;;;;;;4.00;99.90;;;;;;4992791;28;20012;-69
2021/12/30 14:24:19;;;;;;;;;;;4.00;99.90;;;;;;4992995;28;19929;-67
2021/12/30 14:26:48;;;;;;;;;;;4.00;99.90;;;;;;4989080;28;19948;-67
2021/12/30 14:29:16;;;;;;;;;;;4.00;99.90;;;;;;4991445;28;20118;-66
2021/12/30 14:31:47;;;;;;;;;;;4.00;99.90;;;;;;4991658;28;19935;-69
2021/12/30 14:34:16;;;;;;;;;;;4.00;99.90;;;;;;4991811;28;19930;-65
2021/12/30 14:36:55;;;;;;;;;;;4.00;99.90;;;;;;4988733;28;20040;-64
2021/12/30 14:39:24;;;;;;;;;;;4.00;99.90;;;;;;4993428;28;20067;-68
2021/12/30 14:42:02;;;;;;;;;;;4.00;99.90;;;;;;4991158;28;19929;-66